Time;durP1;ratioP1;P1;durP2;ratioP2;P2;SDS_P1;SDS_P2;PMS_P1;PMS_P2;Temp;Humidity;BMP_temperature;BMP_pressure;BME280_temperature;BME280_humidity;BME280_pressure;Samples;Min_cycle;Max_cycle;Signal;HPM_P1;HPM_P2
2023/06/03 00:00:22;;;;;;;;;;;;;;;16.63;50.81;98303.56;7379926;19;19915;-79
2023/06/03 00:02:52;;;;;;;;;;;;;;;16.59;50.94;98292.44;7387358;19;19919;-80
2023/06/03 00:05:20;;;;;;;;;;;;;;;16.62;52.96;98294.72;7385672;19;19925;-80
2023/06/03 00:07:49;;;;;;;;;;;;;;;16.58;52.18;98296.13;7390877;19;20642;-81
2023/06/03 00:10:16;;;;;;;;;;;;;;;16.61;53.42;98298.44;7387072;19;20315;-79
2023/06/03 00:12:43;;;;;;;;;;;;;;;16.52;52.09;98294.25;7390017;19;19931;-80
2023/06/03 00:15:10;;;;;;;;;;;;;;;16.49;52.54;98286.63;7390911;19;19929;-80
2023/06/03 00:17:36;;;;;;;;;;;;;;;16.42;52.27;98293.75;7385534;19;20292;-80
2023/06/03 00:20:06;;;;;;;;;;;;;;;16.23;53.04;98289.94;7388760;19;19914;-81
2023/06/03 00:22:35;;;;;;;;;;;;;;;16.21;53.05;98287.44;7389975;19;19936;-79
2023/06/03 00:25:02;;;;;;;;;;;;;;;16.28;53.75;98292.84;7390854;19;19923;-81
2023/06/03 00:27:29;;;;;;;;;;;;;;;16.32;53.13;98293.28;7391234;19;19943;-80
2023/06/03 00:29:57;;;;;;;;;;;;;;;16.26;53.42;98292.22;7387900;19;19936;-80
2023/06/03 00:32:33;;;;;;;;;;;;;;;16.23;52.76;98301.44;7386144;19;19929;-80
2023/06/03 00:35:00;;;;;;;;;;;;;;;16.12;53.44;98291.31;7383586;19;19922;-79
2023/06/03 00:37:27;;;;;;;;;;;;;;;16.12;53.12;98291.31;7385380;19;19919;-80
2023/06/03 00:39:53;;;;;;;;;;;;;;;16.06;53.65;98289.41;7387423;19;20607;-80
2023/06/03 00:42:20;;;;;;;;;;;;;;;16.04;53.82;98288.78;7389388;19;19919;-79
2023/06/03 00:44:47;;;;;;;;;;;;;;;16.01;53.08;98287.31;7386849;19;20479;-81
2023/06/03 00:47:15;;;;;;;;;;;;;;;16.05;53.59;98284.25;7390593;19;19926;-80
2023/06/03 00:49:42;;;;;;;;;;;;;;;15.99;53.76;98286.69;7386413;19;20344;-80
2023/06/03 00:52:09;;;;;;;;;;;;;;;15.99;54.30;98278.66;7388016;19;19931;-80
2023/06/03 00:54:35;;;;;;;;;;;;;;;15.99;54.12;98283.19;7385083;19;19922;-80
2023/06/03 00:57:02;;;;;;;;;;;;;;;15.93;53.70;98278.59;7387395;19;19939;-81
2023/06/03 00:59:29;;;;;;;;;;;;;;;15.84;53.83;98280.59;7386488;19;19923;-80
2023/06/03 01:01:56;;;;;;;;;;;;;;;15.89;53.91;98272.00;7388588;19;19919;-80
2023/06/03 01:04:26;;;;;;;;;;;;;;;15.93;54.44;98274.13;7385854;19;19914;-79
2023/06/03 01:07:14;;;;;;;;;;;;;;;15.87;55.10;98264.19;7386379;19;19939;-81
2023/06/03 01:10:13;;;;;;;;;;;;;;;15.90;54.47;98271.81;7386560;19;19978;-81
2023/06/03 01:12:46;;;;;;;;;;;;;;;15.82;55.05;98273.78;7387326;19;19934;-80
2023/06/03 01:15:15;;;;;;;;;;;;;;;15.83;55.74;98278.94;7381179;19;19911;-80
2023/06/03 01:17:45;;;;;;;;;;;;;;;15.77;54.90;98274.34;7385929;19;20540;-80
2023/06/03 01:20:13;;;;;;;;;;;;;;;15.74;56.09;98275.56;7385843;19;20472;-80
2023/06/03 01:22:40;;;;;;;;;;;;;;;15.73;55.07;98275.78;7383139;19;19919;-81
2023/06/03 01:25:11;;;;;;;;;;;;;;;15.74;55.16;98275.56;7384520;19;19919;-81
2023/06/03 01:27:40;;;;;;;;;;;;;;;15.76;55.43;98268.19;7389404;19;19986;-80
2023/06/03 01:30:08;;;;;;;;;;;;;;;15.73;56.61;98268.59;7387501;19;19935;-80
2023/06/03 01:32:41;;;;;;;;;;;;;;;15.65;55.31;98271.34;7387387;19;19974;-79
2023/06/03 01:35:08;;;;;;;;;;;;;;;15.55;55.39;98278.84;7383850;19;19970;-80
2023/06/03 01:37:39;;;;;;;;;;;;;;;15.54;55.68;98270.03;7387294;19;19927;-80
2023/06/03 01:40:07;;;;;;;;;;;;;;;15.53;55.78;98276.38;7385924;19;20021;-80
2023/06/03 01:42:35;;;;;;;;;;;;;;;15.47;55.63;98276.31;7384782;19;19922;-81
2023/06/03 01:45:04;;;;;;;;;;;;;;;15.42;55.89;98276.88;7382610;19;19923;-79
2023/06/03 01:47:34;;;;;;;;;;;;;;;15.44;55.96;98274.03;7387763;19;19931;-80
2023/06/03 01:50:01;;;;;;;;;;;;;;;15.33;56.26;98268.16;7388092;19;19918;-79
2023/06/03 01:52:34;;;;;;;;;;;;;;;15.42;55.85;98276.03;7382838;19;19918;-79
2023/06/03 01:55:00;;;;;;;;;;;;;;;15.35;55.57;98265.31;7382570;19;19919;-81
2023/06/03 01:57:35;;;;;;;;;;;;;;;15.35;56.16;98279.47;7380585;19;19942;-81
2023/06/03 02:00:06;;;;;;;;;;;;;;;15.29;56.31;98266.06;7384850;19;19923;-82
2023/06/03 02:02:42;;;;;;;;;;;;;;;15.27;55.92;98281.41;7388414;19;20282;-80
2023/06/03 02:05:09;;;;;;;;;;;;;;;15.27;56.13;98282.25;7388596;19;19914;-80
2023/06/03 02:07:36;;;;;;;;;;;;;;;15.25;55.82;98273.63;7387686;19;19931;-82
2023/06/03 02:10:03;;;;;;;;;;;;;;;15.28;56.77;98275.91;7385527;19;19922;-79
2023/06/03 02:12:33;;;;;;;;;;;;;;;15.28;56.89;98275.91;7386682;19;19984;-82
2023/06/03 02:15:00;;;;;;;;;;;;;;;15.33;57.05;98270.84;7379117;19;19942;-79
2023/06/03 02:17:29;;;;;;;;;;;;;;;15.32;56.17;98271.84;7383486;19;19929;-80
2023/06/03 02:19:57;;;;;;;;;;;;;;;15.26;56.32;98277.91;7387148;19;19919;-80
2023/06/03 02:22:24;;;;;;;;;;;;;;;15.30;57.07;98273.88;7383469;19;19922;-80
2023/06/03 02:24:51;;;;;;;;;;;;;;;15.30;56.68;98273.88;7382742;19;19922;-80
2023/06/03 02:27:19;;;;;;;;;;;;;;;15.24;56.58;98274.59;7386364;19;19927;-79
2023/06/03 02:29:50;;;;;;;;;;;;;;;15.18;57.09;98269.22;7380694;19;19971;-79
2023/06/03 02:32:18;;;;;;;;;;;;;;;15.17;56.82;98278.25;7379503;19;19926;-80
2023/06/03 02:34:46;;;;;;;;;;;;;;;15.09;56.93;98276.50;7377671;19;19937;-79
2023/06/03 02:37:19;;;;;;;;;;;;;;;15.07;57.51;98270.53;7386066;19;19915;-80
2023/06/03 02:39:47;;;;;;;;;;;;;;;15.09;57.21;98268.50;7382773;19;19922;-81
2023/06/03 02:42:14;;;;;;;;;;;;;;;15.10;57.27;98272.81;7385379;19;19923;-82
2023/06/03 02:44:40;;;;;;;;;;;;;;;15.10;57.63;98270.16;7380268;19;19939;-80
2023/06/03 02:47:07;;;;;;;;;;;;;;;15.05;57.16;98273.38;7381850;19;19915;-79
2023/06/03 02:49:34;;;;;;;;;;;;;;;15.03;57.51;98272.72;7379062;19;19915;-80
2023/06/03 02:52:01;;;;;;;;;;;;;;;15.04;57.64;98273.56;7379503;19;19915;-80
2023/06/03 02:54:28;;;;;;;;;;;;;;;14.97;57.32;98275.31;7371265;19;19950;-79
2023/06/03 02:56:58;;;;;;;;;;;;;;;14.98;57.18;98279.63;7382748;19;19926;-80
2023/06/03 02:59:25;;;;;;;;;;;;;;;14.98;57.10;98276.97;7381920;19;19918;-79
2023/06/03 03:01:51;;;;;;;;;;;;;;;14.99;58.49;98286.63;7384990;19;19915;-80
2023/06/03 03:04:20;;;;;;;;;;;;;;;14.87;57.84;98278.28;7381212;19;19915;-80
2023/06/03 03:06:57;;;;;;;;;;;;;;;14.84;57.56;98283.97;7382872;19;19926;-80
2023/06/03 03:09:24;;;;;;;;;;;;;;;14.81;57.84;98279.03;7385278;19;20320;-82
2023/06/03 03:11:50;;;;;;;;;;;;;;;14.78;57.88;98284.72;7383846;19;19919;-79
2023/06/03 03:14:17;;;;;;;;;;;;;;;14.76;58.11;98281.41;7381250;19;19935;-81
2023/06/03 03:16:47;;;;;;;;;;;;;;;14.68;58.57;98285.00;7384602;19;19946;-80
2023/06/03 03:19:15;;;;;;;;;;;;;;;14.67;57.91;98278.84;7384319;19;19942;-81
2023/06/03 03:21:45;;;;;;;;;;;;;;;14.71;58.29;98280.09;7380177;19;19927;-81
2023/06/03 03:24:22;;;;;;;;;;;;;;;14.73;58.69;98282.59;7381399;19;19918;-80
2023/06/03 03:26:49;;;;;;;;;;;;;;;14.73;58.11;98287.94;7379901;19;20010;-81
2023/06/03 03:29:18;;;;;;;;;;;;;;;14.64;57.60;98291.69;7381425;19;19919;-80
2023/06/03 03:31:46;;;;;;;;;;;;;;;14.71;58.34;98295.25;7374914;19;19933;-82
2023/06/03 03:34:14;;;;;;;;;;;;;;;14.65;57.98;98291.50;7379853;19;19915;-80
2023/06/03 03:36:45;;;;;;;;;;;;;;;14.66;58.80;98297.66;7376838;19;19919;-80
2023/06/03 03:39:12;;;;;;;;;;;;;;;14.63;58.44;98292.69;7379270;19;19975;-79
2023/06/03 03:41:50;;;;;;;;;;;;;;;14.60;59.42;98293.06;7378967;19;23236;-80
2023/06/03 03:44:17;;;;;;;;;;;;;;;14.59;58.99;98291.44;7380783;19;19990;-81
2023/06/03 03:46:57;;;;;;;;;;;;;;;14.55;58.79;98293.63;7379815;19;19918;-79
2023/06/03 03:49:28;;;;;;;;;;;;;;;14.55;58.81;98290.94;7380328;19;19988;-79
2023/06/03 03:52:02;;;;;;;;;;;;;;;14.55;58.66;98300.78;7378446;19;20368;-81
2023/06/03 03:54:30;;;;;;;;;;;;;;;14.53;58.97;98300.13;7376790;19;19915;-80
2023/06/03 03:56:57;;;;;;;;;;;;;;;14.49;59.52;98303.13;7379675;19;20507;-79
2023/06/03 03:59:25;;;;;;;;;;;;;;;14.45;59.06;98301.00;7385614;19;20563;-79
2023/06/03 04:01:53;;;;;;;;;;;;;;;14.47;59.46;98302.47;7388352;19;19950;-81
2023/06/03 04:04:36;;;;;;;;;;;;;;;14.49;59.54;98296.97;7386555;19;19922;-79
2023/06/03 04:07:03;;;;;;;;;;;;;;;14.49;59.44;98302.31;7389388;19;19915;-80
2023/06/03 04:09:30;;;;;;;;;;;;;;;14.53;59.30;98300.94;7387495;19;19919;-80
2023/06/03 04:11:57;;;;;;;;;;;;;;;14.51;59.42;98308.28;7384073;19;19918;-79
2023/06/03 04:14:31;;;;;;;;;;;;;;;14.49;59.84;98304.97;7386137;19;19983;-79
2023/06/03 04:17:00;;;;;;;;;;;;;;;14.54;59.44;98309.78;7386468;19;19922;-80
2023/06/03 04:19:36;;;;;;;;;;;;;;;14.56;59.57;98305.94;7386791;19;19918;-79
2023/06/03 04:22:12;;;;;;;;;;;;;;;14.54;59.85;98312.44;7387915;19;19990;-80
2023/06/03 04:24:39;;;;;;;;;;;;;;;14.59;60.67;98308.22;7384121;19;19943;-80
2023/06/03 04:27:08;;;;;;;;;;;;;;;14.59;60.77;98315.38;7387711;19;19987;-80
2023/06/03 04:29:36;;;;;;;;;;;;;;;14.55;60.02;98309.59;7382570;19;19914;-80
2023/06/03 04:32:03;;;;;;;;;;;;;;;14.54;60.49;98315.09;7384116;19;19926;-80
2023/06/03 04:34:30;;;;;;;;;;;;;;;14.49;60.06;98318.28;7386571;19;19992;-81
2023/06/03 04:37:00;;;;;;;;;;;;;;;14.59;60.08;98320.72;7384795;19;19998;-82
2023/06/03 04:39:27;;;;;;;;;;;;;;;14.56;60.31;98311.25;7386866;19;19919;-80
2023/06/03 04:41:56;;;;;;;;;;;;;;;14.49;59.79;98319.09;7388148;19;19925;-80
2023/06/03 04:44:28;;;;;;;;;;;;;;;14.67;60.21;98323.28;7382946;19;19953;-80
2023/06/03 04:46:57;;;;;;;;;;;;;;;14.73;60.07;98317.22;7384931;19;19922;-79
2023/06/03 04:49:24;;;;;;;;;;;;;;;14.75;59.32;98317.03;7387692;19;19919;-80
2023/06/03 04:51:55;;;;;;;;;;;;;;;14.78;59.40;98314.84;7384878;19;19922;-80
2023/06/03 04:54:25;;;;;;;;;;;;;;;14.83;59.90;98319.63;7386074;19;20578;-81
2023/06/03 04:56:52;;;;;;;;;;;;;;;14.79;60.25;98319.13;7384499;19;19936;-81
2023/06/03 04:59:18;;;;;;;;;;;;;;;14.91;59.75;98316.84;7387848;19;19923;-79
2023/06/03 05:01:51;;;;;;;;;;;;;;;14.86;59.80;98311.25;7383706;19;19918;-80
2023/06/03 05:04:21;;;;;;;;;;;;;;;14.91;60.56;98312.34;7386836;19;19922;-79
2023/06/03 05:06:50;;;;;;;;;;;;;;;14.93;60.71;98315.66;7385962;19;19974;-80
2023/06/03 05:09:19;;;;;;;;;;;;;;;14.90;59.81;98313.38;7387294;19;19921;-80
2023/06/03 05:11:50;;;;;;;;;;;;;;;14.93;61.39;98304.19;7379524;19;19942;-80
2023/06/03 05:14:16;;;;;;;;;;;;;;;14.89;60.57;98308.22;7385137;19;19987;-81
2023/06/03 05:16:46;;;;;;;;;;;;;;;14.89;60.05;98314.38;7381014;19;19914;-80
2023/06/03 05:19:13;;;;;;;;;;;;;;;14.93;61.29;98313.00;7383718;19;19939;-81
2023/06/03 05:21:40;;;;;;;;;;;;;;;15.05;60.71;98312.50;7383196;19;20345;-79
2023/06/03 05:24:08;;;;;;;;;;;;;;;14.96;60.58;98306.47;7390958;19;19922;-80
2023/06/03 05:26:35;;;;;;;;;;;;;;;14.99;60.62;98308.75;7388659;19;19955;-79
2023/06/03 05:29:02;;;;;;;;;;;;;;;14.90;60.21;98310.72;7386076;19;19912;-81
2023/06/03 05:31:29;;;;;;;;;;;;;;;15.01;60.56;98312.06;7383122;19;19919;-80
2023/06/03 05:33:58;;;;;;;;;;;;;;;15.04;60.31;98306.38;7382230;19;19931;-81
2023/06/03 05:36:26;;;;;;;;;;;;;;;15.09;60.07;98313.81;7380877;19;19922;-81
2023/06/03 05:38:56;;;;;;;;;;;;;;;15.15;60.74;98311.22;7386967;19;19929;-82
2023/06/03 05:41:24;;;;;;;;;;;;;;;15.23;60.28;98310.28;7388941;19;19919;-84
2023/06/03 05:43:53;;;;;;;;;;;;;;;15.29;60.28;98303.38;7381258;19;19930;-81
2023/06/03 05:46:20;;;;;;;;;;;;;;;15.33;60.59;98308.16;7383684;19;19914;-79
2023/06/03 05:48:47;;;;;;;;;;;;;;;15.39;60.24;98303.06;7386608;19;19923;-80
2023/06/03 05:51:15;;;;;;;;;;;;;;;15.50;60.55;98310.56;7383367;19;20387;-79
2023/06/03 05:53:43;;;;;;;;;;;;;;;15.44;57.62;98306.00;7382303;19;19926;-79
2023/06/03 05:56:13;;;;;;;;;;;;;;;15.52;58.58;98311.22;7387857;19;19923;-78
2023/06/03 05:58:40;;;;;;;;;;;;;;;15.61;59.55;98307.41;7387110;19;19977;-83
2023/06/03 06:01:07;;;;;;;;;;;;;;;15.67;59.62;98309.34;7388380;19;19930;-80
2023/06/03 06:03:33;;;;;;;;;;;;;;;15.75;60.37;98308.41;7386835;19;19943;-80
2023/06/03 06:06:01;;;;;;;;;;;;;;;15.86;58.74;98309.75;7389373;19;20265;-83
2023/06/03 06:08:31;;;;;;;;;;;;;;;15.97;59.74;98304.72;7387644;19;19922;-79
2023/06/03 06:10:58;;;;;;;;;;;;;;;16.02;57.75;98304.16;7383362;19;19915;-83
2023/06/03 06:13:25;;;;;;;;;;;;;;;16.13;58.21;98306.28;7383622;19;20294;-84
2023/06/03 06:16:02;;;;;;;;;;;;;;;16.17;57.53;98302.22;7386254;19;19918;-79
2023/06/03 06:18:30;;;;;;;;;;;;;;;16.23;58.08;98306.78;7387721;19;20332;-78
2023/06/03 06:21:00;;;;;;;;;;;;;;;16.30;58.54;98304.16;7389399;19;19914;-80
2023/06/03 06:23:27;;;;;;;;;;;;;;;16.30;57.56;98297.97;7383316;19;20336;-79
2023/06/03 06:25:56;;;;;;;;;;;;;;;16.36;57.95;98305.22;7383160;19;19924;-79
2023/06/03 06:28:26;;;;;;;;;;;;;;;16.35;56.24;98293.75;7389252;19;19911;-80
2023/06/03 06:31:00;;;;;;;;;;;;;;;16.47;57.83;98299.34;7383103;19;20347;-80
2023/06/03 06:33:27;;;;;;;;;;;;;;;16.48;56.05;98298.31;7381780;19;19927;-78
2023/06/03 06:35:57;;;;;;;;;;;;;;;16.46;55.38;98305.72;7389560;19;19947;-78
2023/06/03 06:38:23;;;;;;;;;;;;;;;16.51;55.26;98305.97;7387296;19;19925;-80
2023/06/03 06:40:50;;;;;;;;;;;;;;;16.59;56.94;98305.81;7386009;19;19958;-79
2023/06/03 06:43:21;;;;;;;;;;;;;;;16.68;57.07;98304.63;7384356;19;19918;-79
2023/06/03 06:45:56;;;;;;;;;;;;;;;16.80;56.74;98301.44;7386977;19;19927;-80
2023/06/03 06:48:23;;;;;;;;;;;;;;;16.86;56.42;98301.47;7384566;19;19931;-79
2023/06/03 06:50:58;;;;;;;;;;;;;;;16.89;56.87;98308.25;7381954;19;19975;-79
2023/06/03 06:53:29;;;;;;;;;;;;;;;16.94;56.47;98308.50;7384922;19;20319;-81
2023/06/03 06:56:04;;;;;;;;;;;;;;;17.00;55.96;98306.88;7387476;19;19922;-80
2023/06/03 06:58:36;;;;;;;;;;;;;;;17.11;56.04;98304.47;7381071;19;20246;-79
2023/06/03 07:01:09;;;;;;;;;;;;;;;17.18;56.22;98303.66;7384538;19;19942;-79
2023/06/03 07:03:41;;;;;;;;;;;;;;;17.28;57.69;98296.09;7384578;19;19911;-78
2023/06/03 07:06:10;;;;;;;;;;;;;;;17.30;56.49;98299.41;7387334;19;19946;-79
2023/06/03 07:08:38;;;;;;;;;;;;;;;17.37;55.86;98299.41;7383408;19;19931;-80
2023/06/03 07:11:06;;;;;;;;;;;;;;;17.50;56.25;98299.44;7387675;19;19956;-81
2023/06/03 07:13:41;;;;;;;;;;;;;;;17.50;52.69;98304.78;7382623;19;19929;-79
2023/06/03 07:16:09;;;;;;;;;;;;;;;17.52;53.64;98297.41;7385918;19;19918;-80
2023/06/03 07:18:36;;;;;;;;;;;;;;;17.61;55.13;98296.16;7385908;19;20375;-79
2023/06/03 07:21:03;;;;;;;;;;;;;;;17.73;55.16;98299.91;7388342;19;20421;-79
2023/06/03 07:23:30;;;;;;;;;;;;;;;17.83;56.72;98296.06;7383734;19;19942;-79
2023/06/03 07:25:57;;;;;;;;;;;;;;;17.85;54.45;98300.19;7383481;19;19935;-81
2023/06/03 07:28:50;;;;;;;;;;;;;;;17.93;52.03;98302.66;7384359;19;19926;-80
2023/06/03 07:31:17;;;;;;;;;;;;;;;17.87;52.60;98302.63;7375093;19;19936;-78
2023/06/03 07:33:55;;;;;;;;;;;;;;;17.89;52.86;98301.41;7380805;19;19923;-81
2023/06/03 07:36:28;;;;;;;;;;;;;;;17.82;54.21;98302.41;7386551;19;20395;-78
2023/06/03 07:39:06;;;;;;;;;;;;;;;17.95;55.77;98297.91;7387513;19;19925;-78
2023/06/03 07:41:43;;;;;;;;;;;;;;;18.16;56.18;98294.19;7391789;19;19926;-77
2023/06/03 07:44:34;;;;;;;;;;;;;;;18.04;52.47;98295.88;7390403;19;19914;-80
2023/06/03 07:47:01;;;;;;;;;;;;;;;18.07;54.38;98302.66;7393278;19;19915;-81
2023/06/03 07:49:28;;;;;;;;;;;;;;;18.15;53.05;98297.09;7386191;19;20375;-80
2023/06/03 07:51:55;;;;;;;;;;;;;;;18.25;53.18;98299.38;7392325;19;19939;-80
2023/06/03 07:54:22;;;;;;;;;;;;;;;18.28;52.67;98294.41;7391253;19;20351;-81
2023/06/03 07:56:49;;;;;;;;;;;;;;;18.46;52.03;98301.81;7388314;19;19919;-79
2023/06/03 07:59:17;;;;;;;;;;;;;;;18.50;51.55;98300.34;7394804;19;19943;-78
2023/06/03 08:01:43;;;;;;;;;;;;;;;18.58;53.84;98302.00;7391458;19;19923;-79
2023/06/03 08:04:11;;;;;;;;;;;;;;;18.65;54.15;98302.81;7387580;19;19923;-78
2023/06/03 08:06:39;;;;;;;;;;;;;;;18.75;50.88;98303.25;7384156;19;19925;-79
2023/06/03 08:09:06;;;;;;;;;;;;;;;18.88;51.43;98299.69;7391993;19;19927;-78
2023/06/03 08:11:33;;;;;;;;;;;;;;;18.81;52.70;98305.06;7391782;19;19915;-79
2023/06/03 08:14:00;;;;;;;;;;;;;;;18.92;52.00;98308.94;7389707;19;19922;-79
2023/06/03 08:16:26;;;;;;;;;;;;;;;19.01;51.57;98315.75;7398944;19;20329;-81
2023/06/03 08:18:54;;;;;;;;;;;;;;;19.05;51.12;98306.22;7391757;19;19943;-82
2023/06/03 08:21:27;;;;;;;;;;;;;;;19.16;52.35;98307.41;7388964;19;19923;-79
2023/06/03 08:23:54;;;;;;;;;;;;;;;19.24;49.53;98303.69;7385942;19;19958;-82
2023/06/03 08:26:26;;;;;;;;;;;;;;;19.28;48.96;98304.91;7400888;19;19952;-80
2023/06/03 08:28:53;;;;;;;;;;;;;;;19.38;50.46;98305.28;7394542;19;20562;-79
2023/06/03 08:31:19;;;;;;;;;;;;;;;19.49;48.81;98309.97;7395054;19;19939;-81
2023/06/03 08:33:50;;;;;;;;;;;;;;;19.59;48.50;98303.28;7393188;19;19990;-80
2023/06/03 08:36:19;;;;;;;;;;;;;;;19.66;49.62;98307.59;7388125;19;19919;-77
2023/06/03 08:38:46;;;;;;;;;;;;;;;19.80;51.10;98302.16;7391669;19;19925;-79
2023/06/03 08:41:13;;;;;;;;;;;;;;;19.64;48.72;98307.00;7392983;19;19919;-79
2023/06/03 08:43:49;;;;;;;;;;;;;;;19.85;51.60;98311.22;7391547;19;19915;-80
2023/06/03 08:46:19;;;;;;;;;;;;;;;19.88;50.02;98312.63;7391895;19;19915;-78
2023/06/03 08:49:13;;;;;;;;;;;;;;;19.86;47.91;98312.06;7390715;19;19951;-80
2023/06/03 08:51:42;;;;;;;;;;;;;;;20.00;48.82;98316.28;7392368;19;19915;-83
2023/06/03 08:54:13;;;;;;;;;;;;;;;20.07;48.66;98321.59;7386961;19;19919;-81
2023/06/03 08:56:42;;;;;;;;;;;;;;;20.09;49.65;98320.34;7383410;19;19925;-81
2023/06/03 08:59:09;;;;;;;;;;;;;;;20.11;49.91;98307.50;7391311;19;19923;-81
2023/06/03 09:01:37;;;;;;;;;;;;;;;20.18;50.22;98310.97;7394853;19;19994;-83
2023/06/03 09:04:03;;;;;;;;;;;;;;;20.27;50.53;98308.00;7387014;19;19918;-83
2023/06/03 09:06:31;;;;;;;;;;;;;;;20.31;50.05;98310.03;7391054;19;19927;-82
2023/06/03 09:08:58;;;;;;;;;;;;;;;20.45;50.14;98305.34;7386306;19;19997;-82
2023/06/03 09:11:25;;;;;;;;;;;;;;;20.53;48.95;98306.94;7389080;19;19922;-80
2023/06/03 09:13:52;;;;;;;;;;;;;;;20.58;48.70;98304.44;7387613;19;19929;-80
2023/06/03 09:16:20;;;;;;;;;;;;;;;20.60;48.20;98303.19;7394634;19;19925;-81
2023/06/03 09:18:49;;;;;;;;;;;;;;;20.70;48.71;98304.56;7391021;19;19926;-82
2023/06/03 09:21:19;;;;;;;;;;;;;;;20.77;46.65;98302.59;7392700;19;19923;-78
2023/06/03 09:23:51;;;;;;;;;;;;;;;20.87;46.84;98310.16;7390336;19;19925;-81
2023/06/03 09:26:18;;;;;;;;;;;;;;;20.97;47.44;98310.47;7392562;19;19914;-79
2023/06/03 09:28:45;;;;;;;;;;;;;;;21.12;48.69;98308.22;7381608;19;19917;-78
2023/06/03 09:31:11;;;;;;;;;;;;;;;21.15;48.29;98301.56;7389798;19;20309;-80
2023/06/03 09:33:38;;;;;;;;;;;;;;;20.91;47.75;98298.72;7388821;19;19931;-79
2023/06/03 09:36:12;;;;;;;;;;;;;;;21.08;47.60;98298.13;7390394;19;19974;-78
2023/06/03 09:38:53;;;;;;;;;;;;;;;21.24;46.68;98297.50;7393167;19;19919;-79
2023/06/03 09:41:21;;;;;;;;;;;;;;;21.40;45.92;98296.09;7391843;19;19932;-82
2023/06/03 09:43:51;;;;;;;;;;;;;;;21.64;47.37;98295.16;7387810;19;19958;-79
2023/06/03 09:46:18;;;;;;;;;;;;;;;21.57;46.65;98283.66;7386270;19;19907;-81
2023/06/03 09:48:51;;;;;;;;;;;;;;;21.78;45.01;98289.56;7382863;19;19972;-82
2023/06/03 09:51:38;;;;;;;;;;;;;;;22.06;45.96;98288.91;7390489;19;19940;-82
2023/06/03 09:54:15;;;;;;;;;;;;;;;22.20;44.16;98279.59;7387539;19;19931;-82
2023/06/03 09:56:42;;;;;;;;;;;;;;;22.63;45.97;98278.41;7389900;19;20320;-80
2023/06/03 09:59:25;;;;;;;;;;;;;;;22.87;43.02;98276.50;7396335;19;19919;-80
2023/06/03 10:01:52;;;;;;;;;;;;;;;22.93;44.99;98277.44;7401237;19;19941;-81
2023/06/03 10:04:41;;;;;;;;;;;;;;;23.37;44.33;98288.59;7403053;19;19918;-81
2023/06/03 10:07:08;;;;;;;;;;;;;;;24.08;42.11;98276.38;7397318;19;19915;-79
2023/06/03 10:09:35;;;;;;;;;;;;;;;24.65;39.95;98269.97;7402880;19;20569;-78
2023/06/03 10:12:04;;;;;;;;;;;;;;;25.31;39.39;98270.03;7404943;19;19915;-81
2023/06/03 10:14:30;;;;;;;;;;;;;;;25.70;38.99;98271.75;7399423;19;19924;-78
2023/06/03 10:17:04;;;;;;;;;;;;;;;25.55;38.19;98264.31;7405865;19;20320;-80
2023/06/03 10:19:31;;;;;;;;;;;;;;;25.39;37.97;98268.75;7390262;19;20316;-79
2023/06/03 10:21:58;;;;;;;;;;;;;;;25.33;37.64;98267.88;7386267;19;19919;-77
2023/06/03 10:24:27;;;;;;;;;;;;;;;25.39;39.41;98266.03;7381707;19;19917;-79
2023/06/03 10:26:54;;;;;;;;;;;;;;;25.37;38.34;98269.00;7386786;19;19978;-81
2023/06/03 10:29:21;;;;;;;;;;;;;;;24.97;39.27;98270.13;7389958;19;19986;-80
2023/06/03 10:31:49;;;;;;;;;;;;;;;24.61;39.86;98258.00;7390272;19;19923;-80
2023/06/03 10:34:16;;;;;;;;;;;;;;;24.50;40.19;98259.75;7385012;19;19946;-83
2023/06/03 10:36:43;;;;;;;;;;;;;;;24.26;39.58;98263.69;7384704;19;20365;-80
2023/06/03 10:39:10;;;;;;;;;;;;;;;24.30;41.77;98271.09;7388990;19;19915;-81
2023/06/03 10:41:40;;;;;;;;;;;;;;;23.92;41.29;98252.06;7389035;19;19922;-82
2023/06/03 10:44:07;;;;;;;;;;;;;;;23.70;41.34;98255.47;7388826;19;19997;-83
2023/06/03 10:46:44;;;;;;;;;;;;;;;23.52;42.72;98253.00;7389637;19;19955;-80
2023/06/03 10:49:12;;;;;;;;;;;;;;;23.38;43.41;98255.97;7391529;19;19915;-79
2023/06/03 10:51:45;;;;;;;;;;;;;;;23.26;43.37;98255.19;7386687;19;20510;-80
2023/06/03 10:54:27;;;;;;;;;;;;;;;23.16;42.59;98250.41;7388039;19;19922;-81
2023/06/03 10:56:56;;;;;;;;;;;;;;;23.09;43.42;98251.63;7389111;19;20014;-80
2023/06/03 10:59:23;;;;;;;;;;;;;;;23.09;44.20;98251.63;7389122;19;19947;-81
2023/06/03 11:01:57;;;;;;;;;;;;;;;23.02;42.25;98256.34;7382451;19;19919;-81
2023/06/03 11:04:25;;;;;;;;;;;;;;;23.10;44.43;98255.97;7383849;19;19915;-81
2023/06/03 11:06:53;;;;;;;;;;;;;;;23.23;42.03;98251.09;7383753;19;19915;-86
2023/06/03 11:09:30;;;;;;;;;;;;;;;23.37;41.10;98248.94;7383071;19;19918;-81
2023/06/03 11:12:09;;;;;;;;;;;;;;;23.52;41.20;98243.00;7391258;19;19940;-82
2023/06/03 11:14:49;;;;;;;;;;;;;;;23.56;43.00;98246.84;7392882;19;20336;-80
2023/06/03 11:17:18;;;;;;;;;;;;;;;23.50;41.53;98250.50;7395555;19;19925;-83
2023/06/03 11:19:45;;;;;;;;;;;;;;;23.45;41.14;98242.31;7392433;19;20264;-81
2023/06/03 11:22:12;;;;;;;;;;;;;;;23.43;42.40;98245.28;7390506;19;19930;-79
2023/06/03 11:24:42;;;;;;;;;;;;;;;23.32;42.46;98245.31;7388711;19;19930;-80
2023/06/03 11:27:09;;;;;;;;;;;;;;;23.31;41.93;98251.78;7391864;19;19922;-81
2023/06/03 11:29:48;;;;;;;;;;;;;;;23.18;43.04;98245.59;7394273;19;20740;-80
2023/06/03 11:32:16;;;;;;;;;;;;;;;23.13;41.96;98244.69;7391817;19;19930;-83
2023/06/03 11:34:43;;;;;;;;;;;;;;;23.21;43.65;98242.41;7391620;19;19919;-79
2023/06/03 11:37:14;;;;;;;;;;;;;;;23.40;42.11;98240.34;7390042;19;19918;-87
2023/06/03 11:40:09;;;;;;;;;;;;;;;23.27;41.83;98242.50;7388468;19;19914;-80
2023/06/03 11:42:48;;;;;;;;;;;;;;;23.37;43.17;98242.72;7383362;19;19925;-76
2023/06/03 11:45:28;;;;;;;;;;;;;;;23.41;39.25;98235.78;7389998;19;20728;-81
2023/06/03 11:48:01;;;;;;;;;;;;;;;23.43;40.86;98231.78;7390912;19;19934;-82
2023/06/03 11:50:32;;;;;;;;;;;;;;;23.55;41.16;98234.41;7389336;19;20028;-83
2023/06/03 11:52:59;;;;;;;;;;;;;;;23.53;41.63;98233.81;7401213;19;19940;-80
2023/06/03 11:55:32;;;;;;;;;;;;;;;23.59;41.56;98224.78;7397249;19;19929;-83
2023/06/03 11:58:08;;;;;;;;;;;;;;;23.72;41.52;98225.53;7391448;19;19978;-80
2023/06/03 12:00:35;;;;;;;;;;;;;;;23.82;41.53;98231.09;7386593;19;19915;-83
2023/06/03 12:03:02;;;;;;;;;;;;;;;24.00;42.02;98228.16;7391020;19;19925;-83
2023/06/03 12:05:29;;;;;;;;;;;;;;;24.16;40.51;98214.88;7392363;19;19914;-83
2023/06/03 12:07:57;;;;;;;;;;;;;;;24.20;42.57;98202.53;7391730;19;19965;-81
2023/06/03 12:10:23;;;;;;;;;;;;;;;24.18;40.92;98216.28;7391027;19;19911;-81
2023/06/03 12:12:54;;;;;;;;;;;;;;;24.34;38.89;98211.91;7393515;19;19962;-89
2023/06/03 12:15:21;;;;;;;;;;;;;;;24.53;40.30;98210.56;7391019;19;20347;-82
2023/06/03 12:17:48;;;;;;;;;;;;;;;24.69;39.33;98202.66;7386689;19;19919;-82
2023/06/03 12:20:24;;;;;;;;;;;;;;;24.73;38.13;98203.81;7386266;19;20627;-80
2023/06/03 12:22:58;;;;;;;;;;;;;;;24.79;40.06;98208.22;7392186;19;19958;-86
2023/06/03 12:25:25;;;;;;;;;;;;;;;24.83;39.95;98209.34;7393621;19;19919;-82
2023/06/03 12:27:52;;;;;;;;;;;;;;;24.79;38.06;98208.22;7388922;19;19926;-83
2023/06/03 12:30:31;;;;;;;;;;;;;;;24.69;39.51;98205.38;7389183;19;19911;-83
2023/06/03 12:32:58;;;;;;;;;;;;;;;24.61;38.60;98203.09;7385090;19;19923;-83
2023/06/03 12:35:26;;;;;;;;;;;;;;;24.45;38.18;98202.09;7388119;19;19951;-81
2023/06/03 12:38:05;;;;;;;;;;;;;;;24.41;39.12;98207.16;7385762;19;20215;-81
2023/06/03 12:40:32;;;;;;;;;;;;;;;24.21;40.09;98199.56;7386260;19;19923;-80
2023/06/03 12:43:00;;;;;;;;;;;;;;;24.04;39.65;98196.03;7391042;19;19926;-81
2023/06/03 12:45:27;;;;;;;;;;;;;;;24.01;40.54;98197.38;7387784;19;19960;-81
2023/06/03 12:47:55;;;;;;;;;;;;;;;24.00;40.91;98193.03;7390372;19;19921;-81
2023/06/03 12:50:25;;;;;;;;;;;;;;;24.02;40.92;98200.91;7386341;19;19915;-80
2023/06/03 12:52:51;;;;;;;;;;;;;;;24.03;39.43;98199.81;7382184;19;20264;-83
2023/06/03 12:55:18;;;;;;;;;;;;;;;24.26;38.22;98194.22;7387839;19;19922;-80
2023/06/03 12:57:46;;;;;;;;;;;;;;;24.46;40.49;98192.91;7388976;19;20427;-80
2023/06/03 13:00:18;;;;;;;;;;;;;;;24.41;39.74;98190.94;7384590;19;19918;-87